AirNav   Everest Fuels
 
 807 users online  

MO99 Miller Airport
Climax Springs, Missouri, USA

GOING TO CLIMAX SPRINGS?


FAA INFORMATION EFFECTIVE 16 JUNE 2022

Location

FAA Identifier: MO99
Lat/Long: 38-06-59.1080N 093-04-37.7020W
38-06.985133N 093-04.628367W
38.1164189,-93.0771394
(estimated)
Elevation: 1000 ft. / 305 m (estimated)
Variation: 04E (1985)
From city: 2 miles W of CLIMAX SPRINGS, MO
Time zone: UTC -5 (UTC -6 during Standard Time)
Zip code: 65326

Airport Operations

Airport use: Private use. Permission required prior to landing
Activation date: 06/1962
Control tower: no
ARTCC: KANSAS CITY CENTER
FSS: COLUMBIA FLIGHT SERVICE STATION
Attendance: UNATNDD
Wind indicator: yes
Segmented circle: no

Airport Communications

WX AWOS-3PT at RAW (19 nm NW): 118.325 (660-547-3761)

Airport Services

Airframe service: NONE
Powerplant service: NONE

Runway Information

Runway 7/25

Dimensions: 2600 x 100 ft. / 792 x 30 m
Surface: turf
RUNWAY 7  RUNWAY 25
Traffic pattern: leftleft

Airport Ownership and Management from official FAA records

Ownership: Privately-owned
Owner: WILLIAM D. MILLER
BOX 97
CLEVELAND, MO 64734
Phone 816-658-3519

Airport Operational Statistics

Aircraft based on the field: 3
Single engine airplanes: 3
    

Additional Remarks

VERY SOFT AND MUDDY DURING RAINY SEASON OR AFTER THAW.
DEER ON THE RWY.
FOR CD CTC WHITEMAN APCH AT 660-687-3132. WHEN WHITEMAN APCH IS CLSD, CTC KANSAS CITY ARTCC AT 913-254-8508.

Instrument Procedures

There are no published instrument procedures at MO99.

Some nearby airports with instrument procedures:

K15 - Grand Glaize-Osage Beach Airport (19 nm E)
KRAW - Warsaw Municipal Airport (19 nm NW)
KOZS - Camdenton Memorial-Lake Regional Airport (20 nm SE)
KAIZ - Lee C Fine Memorial Airport (25 nm E)
H79 - Eldon Model Airpark (28 nm NE)
 
Loc | Ops | Rwys | IFR | FBO | Links
Com | Nav | Svcs | Stats | Notes
Area around MO99 (Miller Airport)
 
Road maps at: MapQuest Bing Google
 
Aerial photo
No photo
 
Sectional chart

 
Airport distance calculator
Flying to Miller Airport? Find the distance to fly.

From to MO99

Sunrise and sunset
Times for 25-Jun-2022
 Local
(UTC-5)
 Zulu
(UTC)
Morning civil twilight05:2010:20
Sunrise05:5210:52
Sunset20:3801:38
Evening civil twilight21:1002:10

Current date and time
Zulu (UTC)  25-Jun-2022 12:12:16
Local (UTC-5)  25-Jun-2022 07:12:16
 
METAR
KOZS 
20nm SE 
251155Z AUTO 15009KT 10SM CLR 25/18 A2996 RMK AO2
KGLY 
32nm NW 
251155Z AUTO 18008KT 10SM CLR 27/22 A2991 RMK AO2
KLBO 
35nm SE 
251155Z AUTO 16006KT 10SM CLR 24/18 A2999 RMK AO2
KDMO 
36nm N 
251153Z AUTO 19013KT 10SM CLR 26/21 A2991 RMK AO2 SLP120 T02560206 10267 20256 53003
TAF
KSZL 
42nm NW 
250300Z 2503/2609 12012KT 9999 SCT150 QNH2983INS BECMG 2515/2516 20012G18KT 9999 FEW040 BKN140 621503 QNH2989INS BECMG 2523/2524 32009KT 9999 SCT060 OVC140 611505 QNH2993INS BECMG 2605/2606 32009KT 8000 -SHRA BKN060 OVC140 611505 QNH3008INS TEMPO 2606/2609 25015G20KT 1600 -TSRA BKN020CB OVC140 TX34/2519Z TN21/2512Z
NOTAMs
Click for the latest NOTAMs
NOTAMs are issued by the DoD/FAA and will open in a separate window not controlled by AirNav.

 

 
 

Would you like to see your business listed on this page?

 If your business provides an interesting product or service to pilots, flight crews, aircraft, or users of the Miller Airport, you should consider listing it here.  To start the listing process, click on the button below
 
Add a business
 

Other Pages about Miller Airport

Update a link
 
Copyright © AirNav, LLC. All rights reserved. Privacy Policy  Contact